sensor_id;sensor_type;location;lat;lon;timestamp;temperature;humidity
58413;DHT22;44209;52.952;6.790;2024-01-15T00:00:39;1.90;99.90
58413;DHT22;44209;52.952;6.790;2024-01-15T00:03:05;1.90;99.90
58413;DHT22;44209;52.952;6.790;2024-01-15T00:05:30;1.90;99.90
58413;DHT22;44209;52.952;6.790;2024-01-15T00:07:56;1.90;99.90
58413;DHT22;44209;52.952;6.790;2024-01-15T00:10:22;2.00;99.90
58413;DHT22;44209;52.952;6.790;2024-01-15T00:12:48;1.90;99.90
58413;DHT22;44209;52.952;6.790;2024-01-15T00:15:14;2.00;99.90
58413;DHT22;44209;52.952;6.790;2024-01-15T00:17:40;2.00;99.90
58413;DHT22;44209;52.952;6.790;2024-01-15T00:20:06;2.00;99.90
58413;DHT22;44209;52.952;6.790;2024-01-15T00:22:32;2.00;99.90
58413;DHT22;44209;52.952;6.790;2024-01-15T00:24:58;2.00;99.90
58413;DHT22;44209;52.952;6.790;2024-01-15T00:27:24;2.10;99.90
58413;DHT22;44209;52.952;6.790;2024-01-15T00:29:50;2.20;99.90
58413;DHT22;44209;52.952;6.790;2024-01-15T00:32:17;2.30;99.90
58413;DHT22;44209;52.952;6.790;2024-01-15T00:34:43;2.40;99.90
58413;DHT22;44209;52.952;6.790;2024-01-15T00:37:08;2.30;99.90
58413;DHT22;44209;52.952;6.790;2024-01-15T00:39:34;2.30;99.90
58413;DHT22;44209;52.952;6.790;2024-01-15T00:42:00;2.30;99.90
58413;DHT22;44209;52.952;6.790;2024-01-15T00:44:25;2.20;99.90
58413;DHT22;44209;52.952;6.790;2024-01-15T00:46:51;2.10;99.90
58413;DHT22;44209;52.952;6.790;2024-01-15T00:49:17;2.00;99.90
58413;DHT22;44209;52.952;6.790;2024-01-15T00:51:42;2.10;99.90
58413;DHT22;44209;52.952;6.790;2024-01-15T00:54:08;2.10;99.90
58413;DHT22;44209;52.952;6.790;2024-01-15T00:56:34;2.10;99.90
58413;DHT22;44209;52.952;6.790;2024-01-15T00:59:00;2.00;99.90
58413;DHT22;44209;52.952;6.790;2024-01-15T01:01:26;2.00;99.90
58413;DHT22;44209;52.952;6.790;2024-01-15T01:03:51;2.00;99.90
58413;DHT22;44209;52.952;6.790;2024-01-15T01:06:17;1.90;99.90
58413;DHT22;44209;52.952;6.790;2024-01-15T01:08:42;1.90;99.90
58413;DHT22;44209;52.952;6.790;2024-01-15T01:11:13;1.90;99.90
58413;DHT22;44209;52.952;6.790;2024-01-15T01:13:39;1.90;99.90
58413;DHT22;44209;52.952;6.790;2024-01-15T01:16:04;1.90;99.90
58413;DHT22;44209;52.952;6.790;2024-01-15T01:18:30;1.80;99.90
58413;DHT22;44209;52.952;6.790;2024-01-15T01:20:56;1.80;99.90
58413;DHT22;44209;52.952;6.790;2024-01-15T01:23:21;1.70;99.90
58413;DHT22;44209;52.952;6.790;2024-01-15T01:25:47;1.70;99.90
58413;DHT22;44209;52.952;6.790;2024-01-15T01:28:13;1.70;99.90
58413;DHT22;44209;52.952;6.790;2024-01-15T01:30:38;1.60;99.90
58413;DHT22;44209;52.952;6.790;2024-01-15T01:33:05;1.60;99.90
58413;DHT22;44209;52.952;6.790;2024-01-15T01:35:30;1.60;99.90
58413;DHT22;44209;52.952;6.790;2024-01-15T01:37:56;1.60;99.90
58413;DHT22;44209;52.952;6.790;2024-01-15T01:40:22;1.60;99.90
58413;DHT22;44209;52.952;6.790;2024-01-15T01:42:48;1.50;99.90
58413;DHT22;44209;52.952;6.790;2024-01-15T01:45:14;1.60;99.90
58413;DHT22;44209;52.952;6.790;2024-01-15T01:47:40;1.60;99.90
58413;DHT22;44209;52.952;6.790;2024-01-15T01:50:06;1.60;99.90
58413;DHT22;44209;52.952;6.790;2024-01-15T01:52:32;1.60;99.90
58413;DHT22;44209;52.952;6.790;2024-01-15T01:55:00;1.60;99.90
58413;DHT22;44209;52.952;6.790;2024-01-15T01:57:26;1.70;99.90
58413;DHT22;44209;52.952;6.790;2024-01-15T01:59:53;1.80;99.90
58413;DHT22;44209;52.952;6.790;2024-01-15T02:02:18;1.70;99.90
58413;DHT22;44209;52.952;6.790;2024-01-15T02:04:47;1.80;99.90
58413;DHT22;44209;52.952;6.790;2024-01-15T02:07:13;1.80;99.90
58413;DHT22;44209;52.952;6.790;2024-01-15T02:09:38;1.80;99.90
58413;DHT22;44209;52.952;6.790;2024-01-15T02:12:04;1.80;99.90
58413;DHT22;44209;52.952;6.790;2024-01-15T02:14:30;1.80;99.90
58413;DHT22;44209;52.952;6.790;2024-01-15T02:16:56;1.70;99.90
58413;DHT22;44209;52.952;6.790;2024-01-15T02:19:21;1.80;99.90
58413;DHT22;44209;52.952;6.790;2024-01-15T02:21:47;1.80;99.90
58413;DHT22;44209;52.952;6.790;2024-01-15T02:24:13;1.80;99.90
58413;DHT22;44209;52.952;6.790;2024-01-15T02:26:39;1.80;99.90
58413;DHT22;44209;52.952;6.790;2024-01-15T02:29:08;1.80;99.90
58413;DHT22;44209;52.952;6.790;2024-01-15T02:31:35;1.80;99.90
58413;DHT22;44209;52.952;6.790;2024-01-15T02:34:01;1.80;99.90
58413;DHT22;44209;52.952;6.790;2024-01-15T02:36:27;1.80;99.90
58413;DHT22;44209;52.952;6.790;2024-01-15T02:38:52;1.90;99.90
58413;DHT22;44209;52.952;6.790;2024-01-15T02:41:18;1.90;99.90
58413;DHT22;44209;52.952;6.790;2024-01-15T02:43:44;1.90;99.90
58413;DHT22;44209;52.952;6.790;2024-01-15T02:46:10;1.90;99.90
58413;DHT22;44209;52.952;6.790;2024-01-15T02:48:35;1.90;99.90
58413;DHT22;44209;52.952;6.790;2024-01-15T02:51:01;1.80;99.90
58413;DHT22;44209;52.952;6.790;2024-01-15T02:53:27;1.80;99.90
58413;DHT22;44209;52.952;6.790;2024-01-15T02:55:53;1.80;99.90
58413;DHT22;44209;52.952;6.790;2024-01-15T02:58:19;1.90;99.90
58413;DHT22;44209;52.952;6.790;2024-01-15T03:00:45;1.90;99.90
58413;DHT22;44209;52.952;6.790;2024-01-15T03:03:12;2.00;99.90
58413;DHT22;44209;52.952;6.790;2024-01-15T03:05:37;2.00;99.90
58413;DHT22;44209;52.952;6.790;2024-01-15T03:08:03;2.00;99.90
58413;DHT22;44209;52.952;6.790;2024-01-15T03:10:29;2.00;99.90
58413;DHT22;44209;52.952;6.790;2024-01-15T03:12:55;2.00;99.90
58413;DHT22;44209;52.952;6.790;2024-01-15T03:15:20;2.00;99.90
58413;DHT22;44209;52.952;6.790;2024-01-15T03:17:46;1.90;99.90
58413;DHT22;44209;52.952;6.790;2024-01-15T03:20:12;1.90;99.90
58413;DHT22;44209;52.952;6.790;2024-01-15T03:22:37;1.90;99.90
58413;DHT22;44209;52.952;6.790;2024-01-15T03:25:04;2.00;99.90
58413;DHT22;44209;52.952;6.790;2024-01-15T03:27:30;2.00;99.90
58413;DHT22;44209;52.952;6.790;2024-01-15T03:29:55;2.00;99.90
58413;DHT22;44209;52.952;6.790;2024-01-15T03:32:21;2.00;99.90
58413;DHT22;44209;52.952;6.790;2024-01-15T03:34:47;2.00;99.90
58413;DHT22;44209;52.952;6.790;2024-01-15T03:37:13;2.00;99.90
58413;DHT22;44209;52.952;6.790;2024-01-15T03:39:39;2.00;99.90
58413;DHT22;44209;52.952;6.790;2024-01-15T03:42:05;2.00;99.90
58413;DHT22;44209;52.952;6.790;2024-01-15T03:44:31;2.00;99.90
58413;DHT22;44209;52.952;6.790;2024-01-15T03:46:57;2.10;99.90
58413;DHT22;44209;52.952;6.790;2024-01-15T03:49:23;2.10;99.90
58413;DHT22;44209;52.952;6.790;2024-01-15T03:51:49;2.10;99.90
58413;DHT22;44209;52.952;6.790;2024-01-15T03:54:15;2.10;99.90
58413;DHT22;44209;52.952;6.790;2024-01-15T03:56:40;2.10;99.90
58413;DHT22;44209;52.952;6.790;2024-01-15T03:59:06;2.10;99.90
58413;DHT22;44209;52.952;6.790;2024-01-15T04:01:32;2.00;99.90
58413;DHT22;44209;52.952;6.790;2024-01-15T04:03:57;2.00;99.90
58413;DHT22;44209;52.952;6.790;2024-01-15T04:06:23;2.00;99.90
58413;DHT22;44209;52.952;6.790;2024-01-15T04:08:49;2.00;99.90
58413;DHT22;44209;52.952;6.790;2024-01-15T04:11:14;2.10;99.90
58413;DHT22;44209;52.952;6.790;2024-01-15T04:13:40;2.00;99.90
58413;DHT22;44209;52.952;6.790;2024-01-15T04:16:06;2.00;99.90
58413;DHT22;44209;52.952;6.790;2024-01-15T04:18:31;2.10;99.90
58413;DHT22;44209;52.952;6.790;2024-01-15T04:20:57;2.10;99.90
58413;DHT22;44209;52.952;6.790;2024-01-15T04:23:22;2.10;99.90
58413;DHT22;44209;52.952;6.790;2024-01-15T04:25:48;2.10;99.90
58413;DHT22;44209;52.952;6.790;2024-01-15T04:28:14;2.20;99.90
58413;DHT22;44209;52.952;6.790;2024-01-15T04:30:39;2.20;99.90
58413;DHT22;44209;52.952;6.790;2024-01-15T04:33:05;2.20;99.90
58413;DHT22;44209;52.952;6.790;2024-01-15T04:35:31;2.20;99.90
58413;DHT22;44209;52.952;6.790;2024-01-15T04:37:57;2.20;99.90
58413;DHT22;44209;52.952;6.790;2024-01-15T04:40:22;2.20;99.90
58413;DHT22;44209;52.952;6.790;2024-01-15T04:42:48;2.20;99.90
58413;DHT22;44209;52.952;6.790;2024-01-15T04:45:14;2.20;99.90
58413;DHT22;44209;52.952;6.790;2024-01-15T04:47:40;2.20;99.90
58413;DHT22;44209;52.952;6.790;2024-01-15T04:50:06;2.10;99.90
58413;DHT22;44209;52.952;6.790;2024-01-15T04:52:31;2.10;99.90
58413;DHT22;44209;52.952;6.790;2024-01-15T04:54:58;2.00;99.90
58413;DHT22;44209;52.952;6.790;2024-01-15T04:57:23;2.00;99.90
58413;DHT22;44209;52.952;6.790;2024-01-15T04:59:49;1.90;99.90
58413;DHT22;44209;52.952;6.790;2024-01-15T05:02:14;1.80;99.90
58413;DHT22;44209;52.952;6.790;2024-01-15T05:04:41;1.70;99.90
58413;DHT22;44209;52.952;6.790;2024-01-15T05:07:06;1.70;99.90
58413;DHT22;44209;52.952;6.790;2024-01-15T05:09:32;1.60;99.90
58413;DHT22;44209;52.952;6.790;2024-01-15T05:11:57;1.60;99.90
58413;DHT22;44209;52.952;6.790;2024-01-15T05:14:23;1.60;99.90
58413;DHT22;44209;52.952;6.790;2024-01-15T05:16:49;1.50;99.90
58413;DHT22;44209;52.952;6.790;2024-01-15T05:19:16;1.50;99.90
58413;DHT22;44209;52.952;6.790;2024-01-15T05:21:41;1.40;99.90
58413;DHT22;44209;52.952;6.790;2024-01-15T05:24:08;1.40;99.90
58413;DHT22;44209;52.952;6.790;2024-01-15T05:26:33;1.40;99.90
58413;DHT22;44209;52.952;6.790;2024-01-15T05:28:59;1.40;99.90
58413;DHT22;44209;52.952;6.790;2024-01-15T05:31:25;1.40;99.90
58413;DHT22;44209;52.952;6.790;2024-01-15T05:33:51;1.40;99.90
58413;DHT22;44209;52.952;6.790;2024-01-15T05:36:16;1.40;99.90
58413;DHT22;44209;52.952;6.790;2024-01-15T05:38:42;1.40;99.90
58413;DHT22;44209;52.952;6.790;2024-01-15T05:41:08;1.40;99.90
58413;DHT22;44209;52.952;6.790;2024-01-15T05:43:33;1.40;99.90
58413;DHT22;44209;52.952;6.790;2024-01-15T05:45:59;1.40;99.90
58413;DHT22;44209;52.952;6.790;2024-01-15T05:48:25;1.50;99.90
58413;DHT22;44209;52.952;6.790;2024-01-15T05:50:50;1.50;99.90
58413;DHT22;44209;52.952;6.790;2024-01-15T05:53:16;1.50;99.90
58413;DHT22;44209;52.952;6.790;2024-01-15T05:55:41;1.50;99.90
58413;DHT22;44209;52.952;6.790;2024-01-15T05:58:07;1.60;99.90
58413;DHT22;44209;52.952;6.790;2024-01-15T06:00:33;1.60;99.90
58413;DHT22;44209;52.952;6.790;2024-01-15T06:03:00;1.60;99.90
58413;DHT22;44209;52.952;6.790;2024-01-15T06:05:26;1.60;99.90
58413;DHT22;44209;52.952;6.790;2024-01-15T06:07:52;1.60;99.90
58413;DHT22;44209;52.952;6.790;2024-01-15T06:10:17;1.60;99.90
58413;DHT22;44209;52.952;6.790;2024-01-15T06:12:44;1.60;99.90
58413;DHT22;44209;52.952;6.790;2024-01-15T06:15:09;1.50;99.90
58413;DHT22;44209;52.952;6.790;2024-01-15T06:17:35;1.50;99.90
58413;DHT22;44209;52.952;6.790;2024-01-15T06:20:01;1.50;99.90
58413;DHT22;44209;52.952;6.790;2024-01-15T06:22:27;1.50;99.90
58413;DHT22;44209;52.952;6.790;2024-01-15T06:24:53;1.50;99.90
58413;DHT22;44209;52.952;6.790;2024-01-15T06:27:19;1.50;99.90
58413;DHT22;44209;52.952;6.790;2024-01-15T06:29:47;1.50;99.90
58413;DHT22;44209;52.952;6.790;2024-01-15T06:32:13;1.50;99.90
58413;DHT22;44209;52.952;6.790;2024-01-15T06:34:39;1.50;99.90
58413;DHT22;44209;52.952;6.790;2024-01-15T06:37:05;1.50;99.90
58413;DHT22;44209;52.952;6.790;2024-01-15T06:39:31;1.50;99.90
58413;DHT22;44209;52.952;6.790;2024-01-15T06:41:57;1.50;99.90
58413;DHT22;44209;52.952;6.790;2024-01-15T06:44:22;1.50;99.90
58413;DHT22;44209;52.952;6.790;2024-01-15T06:46:48;1.50;99.90
58413;DHT22;44209;52.952;6.790;2024-01-15T06:49:14;1.50;99.90
58413;DHT22;44209;52.952;6.790;2024-01-15T06:51:40;1.50;99.90
58413;DHT22;44209;52.952;6.790;2024-01-15T06:54:05;1.50;99.90
58413;DHT22;44209;52.952;6.790;2024-01-15T06:56:32;1.50;99.90
58413;DHT22;44209;52.952;6.790;2024-01-15T06:58:58;1.50;99.90
58413;DHT22;44209;52.952;6.790;2024-01-15T07:01:23;1.40;99.90
58413;DHT22;44209;52.952;6.790;2024-01-15T07:03:49;1.50;99.90
58413;DHT22;44209;52.952;6.790;2024-01-15T07:06:15;1.40;99.90
58413;DHT22;44209;52.952;6.790;2024-01-15T07:08:42;1.40;99.90
58413;DHT22;44209;52.952;6.790;2024-01-15T07:11:07;1.40;99.90
58413;DHT22;44209;52.952;6.790;2024-01-15T07:13:34;1.50;99.90
58413;DHT22;44209;52.952;6.790;2024-01-15T07:15:59;1.50;99.90
58413;DHT22;44209;52.952;6.790;2024-01-15T07:18:25;1.50;99.90
58413;DHT22;44209;52.952;6.790;2024-01-15T07:20:51;1.50;99.90
58413;DHT22;44209;52.952;6.790;2024-01-15T07:23:17;1.50;99.90
58413;DHT22;44209;52.952;6.790;2024-01-15T07:25:43;1.50;99.90
58413;DHT22;44209;52.952;6.790;2024-01-15T07:28:09;1.50;99.90
58413;DHT22;44209;52.952;6.790;2024-01-15T07:30:35;1.50;99.90
58413;DHT22;44209;52.952;6.790;2024-01-15T07:33:00;1.50;99.90
58413;DHT22;44209;52.952;6.790;2024-01-15T07:35:26;1.50;99.90
58413;DHT22;44209;52.952;6.790;2024-01-15T07:37:52;1.50;99.90
58413;DHT22;44209;52.952;6.790;2024-01-15T07:40:18;1.50;99.90
58413;DHT22;44209;52.952;6.790;2024-01-15T07:42:44;1.40;99.90
58413;DHT22;44209;52.952;6.790;2024-01-15T07:45:10;1.40;99.90
58413;DHT22;44209;52.952;6.790;2024-01-15T07:47:36;1.40;99.90
58413;DHT22;44209;52.952;6.790;2024-01-15T07:50:02;1.40;99.90
58413;DHT22;44209;52.952;6.790;2024-01-15T07:52:28;1.40;99.90
58413;DHT22;44209;52.952;6.790;2024-01-15T07:54:53;1.30;99.90
58413;DHT22;44209;52.952;6.790;2024-01-15T07:57:20;1.30;99.90
58413;DHT22;44209;52.952;6.790;2024-01-15T07:59:46;1.30;99.90
58413;DHT22;44209;52.952;6.790;2024-01-15T08:02:11;1.30;99.90
58413;DHT22;44209;52.952;6.790;2024-01-15T08:04:37;1.30;99.90
58413;DHT22;44209;52.952;6.790;2024-01-15T08:07:04;1.30;99.90
58413;DHT22;44209;52.952;6.790;2024-01-15T08:09:31;1.40;99.90
58413;DHT22;44209;52.952;6.790;2024-01-15T08:11:57;1.40;99.90
58413;DHT22;44209;52.952;6.790;2024-01-15T08:14:22;1.40;99.90
58413;DHT22;44209;52.952;6.790;2024-01-15T08:16:48;1.50;99.90
58413;DHT22;44209;52.952;6.790;2024-01-15T08:19:14;1.60;99.90
58413;DHT22;44209;52.952;6.790;2024-01-15T08:21:40;1.60;99.90
58413;DHT22;44209;52.952;6.790;2024-01-15T08:24:06;1.70;99.90
58413;DHT22;44209;52.952;6.790;2024-01-15T08:26:32;1.70;99.90
58413;DHT22;44209;52.952;6.790;2024-01-15T08:28:58;1.70;99.90
58413;DHT22;44209;52.952;6.790;2024-01-15T08:31:24;1.70;99.90
58413;DHT22;44209;52.952;6.790;2024-01-15T08:33:50;1.70;99.90
58413;DHT22;44209;52.952;6.790;2024-01-15T08:36:15;1.70;99.90
58413;DHT22;44209;52.952;6.790;2024-01-15T08:38:42;1.60;99.90
58413;DHT22;44209;52.952;6.790;2024-01-15T08:41:08;1.60;99.90
58413;DHT22;44209;52.952;6.790;2024-01-15T08:43:35;1.60;99.90
58413;DHT22;44209;52.952;6.790;2024-01-15T08:46:00;1.60;99.90
58413;DHT22;44209;52.952;6.790;2024-01-15T08:48:27;1.60;99.90
58413;DHT22;44209;52.952;6.790;2024-01-15T08:50:53;1.60;99.90
58413;DHT22;44209;52.952;6.790;2024-01-15T08:53:20;1.60;99.90
58413;DHT22;44209;52.952;6.790;2024-01-15T08:55:46;1.70;99.90
58413;DHT22;44209;52.952;6.790;2024-01-15T08:58:11;1.70;99.90
58413;DHT22;44209;52.952;6.790;2024-01-15T09:00:37;1.80;99.90
58413;DHT22;44209;52.952;6.790;2024-01-15T09:03:03;1.80;99.90
58413;DHT22;44209;52.952;6.790;2024-01-15T09:05:29;1.90;99.90
58413;DHT22;44209;52.952;6.790;2024-01-15T09:07:55;2.00;99.90
58413;DHT22;44209;52.952;6.790;2024-01-15T09:10:21;2.10;99.90
58413;DHT22;44209;52.952;6.790;2024-01-15T09:12:47;2.20;99.90
58413;DHT22;44209;52.952;6.790;2024-01-15T09:15:14;2.30;99.90
58413;DHT22;44209;52.952;6.790;2024-01-15T09:17:40;2.30;99.90
58413;DHT22;44209;52.952;6.790;2024-01-15T09:20:07;2.40;99.90
58413;DHT22;44209;52.952;6.790;2024-01-15T09:22:32;2.50;99.90
58413;DHT22;44209;52.952;6.790;2024-01-15T09:24:58;2.60;99.90
58413;DHT22;44209;52.952;6.790;2024-01-15T09:27:24;2.60;99.90
58413;DHT22;44209;52.952;6.790;2024-01-15T09:29:53;2.60;99.90
58413;DHT22;44209;52.952;6.790;2024-01-15T09:32:19;2.60;99.90
58413;DHT22;44209;52.952;6.790;2024-01-15T09:34:47;2.50;99.90
58413;DHT22;44209;52.952;6.790;2024-01-15T09:37:16;2.40;99.90
58413;DHT22;44209;52.952;6.790;2024-01-15T09:39:42;2.30;99.90
58413;DHT22;44209;52.952;6.790;2024-01-15T09:42:08;2.30;99.90
58413;DHT22;44209;52.952;6.790;2024-01-15T09:44:34;2.30;99.90
58413;DHT22;44209;52.952;6.790;2024-01-15T09:47:01;2.30;99.90
58413;DHT22;44209;52.952;6.790;2024-01-15T09:49:26;2.30;99.90
58413;DHT22;44209;52.952;6.790;2024-01-15T09:51:53;2.30;99.90
58413;DHT22;44209;52.952;6.790;2024-01-15T09:54:20;2.40;99.90
58413;DHT22;44209;52.952;6.790;2024-01-15T09:56:47;2.40;99.90
58413;DHT22;44209;52.952;6.790;2024-01-15T09:59:16;2.40;99.90
58413;DHT22;44209;52.952;6.790;2024-01-15T10:01:43;2.50;99.90
58413;DHT22;44209;52.952;6.790;2024-01-15T10:04:11;2.60;99.90
58413;DHT22;44209;52.952;6.790;2024-01-15T10:06:39;2.70;99.90
58413;DHT22;44209;52.952;6.790;2024-01-15T10:09:07;2.70;99.90
58413;DHT22;44209;52.952;6.790;2024-01-15T10:11:33;2.70;99.90
58413;DHT22;44209;52.952;6.790;2024-01-15T10:13:59;2.60;99.90
58413;DHT22;44209;52.952;6.790;2024-01-15T10:16:26;2.60;99.90
58413;DHT22;44209;52.952;6.790;2024-01-15T10:18:51;2.50;99.90
58413;DHT22;44209;52.952;6.790;2024-01-15T10:21:17;2.40;99.90
58413;DHT22;44209;52.952;6.790;2024-01-15T10:23:43;2.40;99.90
58413;DHT22;44209;52.952;6.790;2024-01-15T10:26:09;2.40;99.90
58413;DHT22;44209;52.952;6.790;2024-01-15T10:28:37;2.40;99.90
58413;DHT22;44209;52.952;6.790;2024-01-15T10:31:03;2.40;99.90
58413;DHT22;44209;52.952;6.790;2024-01-15T10:33:30;2.40;99.90
58413;DHT22;44209;52.952;6.790;2024-01-15T10:36:00;2.50;99.90
58413;DHT22;44209;52.952;6.790;2024-01-15T10:38:26;2.50;99.90
58413;DHT22;44209;52.952;6.790;2024-01-15T10:40:53;2.60;99.90
58413;DHT22;44209;52.952;6.790;2024-01-15T10:43:20;2.70;99.90
58413;DHT22;44209;52.952;6.790;2024-01-15T10:45:46;2.70;99.90
58413;DHT22;44209;52.952;6.790;2024-01-15T10:48:13;2.70;99.90
58413;DHT22;44209;52.952;6.790;2024-01-15T10:50:40;2.90;99.90
58413;DHT22;44209;52.952;6.790;2024-01-15T10:53:06;2.90;99.90
58413;DHT22;44209;52.952;6.790;2024-01-15T10:55:33;2.90;99.90
58413;DHT22;44209;52.952;6.790;2024-01-15T10:58:00;2.80;99.90
58413;DHT22;44209;52.952;6.790;2024-01-15T11:00:26;2.80;99.90
58413;DHT22;44209;52.952;6.790;2024-01-15T11:02:52;2.70;99.90
58413;DHT22;44209;52.952;6.790;2024-01-15T11:05:21;2.60;99.90
58413;DHT22;44209;52.952;6.790;2024-01-15T11:07:50;2.60;99.90
58413;DHT22;44209;52.952;6.790;2024-01-15T11:10:42;2.60;99.90
58413;DHT22;44209;52.952;6.790;2024-01-15T11:16:00;2.60;99.90
58413;DHT22;44209;52.952;6.790;2024-01-15T11:18:28;2.70;99.90
58413;DHT22;44209;52.952;6.790;2024-01-15T11:23:49;2.40;99.90
58413;DHT22;44209;52.952;6.790;2024-01-15T11:26:31;2.30;99.90
58413;DHT22;44209;52.952;6.790;2024-01-15T11:28:58;2.30;99.90
58413;DHT22;44209;52.952;6.790;2024-01-15T11:34:07;2.30;99.90
58413;DHT22;44209;52.952;6.790;2024-01-15T11:42:01;2.50;99.90
58413;DHT22;44209;52.952;6.790;2024-01-15T11:44:29;2.40;99.90
58413;DHT22;44209;52.952;6.790;2024-01-15T11:47:00;2.30;99.90
58413;DHT22;44209;52.952;6.790;2024-01-15T11:49:42;2.40;99.90
58413;DHT22;44209;52.952;6.790;2024-01-15T11:52:14;2.40;99.90
58413;DHT22;44209;52.952;6.790;2024-01-15T11:54:48;2.40;99.90
58413;DHT22;44209;52.952;6.790;2024-01-15T11:57:21;2.40;99.90
58413;DHT22;44209;52.952;6.790;2024-01-15T11:59:49;2.40;99.90
58413;DHT22;44209;52.952;6.790;2024-01-15T12:02:15;2.40;99.90
58413;DHT22;44209;52.952;6.790;2024-01-15T12:04:41;2.40;99.90
58413;DHT22;44209;52.952;6.790;2024-01-15T12:07:06;2.50;99.90
58413;DHT22;44209;52.952;6.790;2024-01-15T12:09:32;2.50;99.90
58413;DHT22;44209;52.952;6.790;2024-01-15T12:12:03;2.50;99.90
58413;DHT22;44209;52.952;6.790;2024-01-15T12:14:32;2.50;99.90
58413;DHT22;44209;52.952;6.790;2024-01-15T12:17:00;2.50;99.90
58413;DHT22;44209;52.952;6.790;2024-01-15T12:19:26;2.50;99.90
58413;DHT22;44209;52.952;6.790;2024-01-15T12:21:51;2.50;99.90
58413;DHT22;44209;52.952;6.790;2024-01-15T12:24:17;2.40;99.90
58413;DHT22;44209;52.952;6.790;2024-01-15T12:26:44;2.20;99.90
58413;DHT22;44209;52.952;6.790;2024-01-15T12:29:11;2.10;99.90
58413;DHT22;44209;52.952;6.790;2024-01-15T12:31:36;2.10;99.90
58413;DHT22;44209;52.952;6.790;2024-01-15T12:34:02;2.00;99.90
58413;DHT22;44209;52.952;6.790;2024-01-15T12:36:31;2.00;99.90
58413;DHT22;44209;52.952;6.790;2024-01-15T12:39:00;1.90;99.90
58413;DHT22;44209;52.952;6.790;2024-01-15T12:41:26;2.00;99.90
58413;DHT22;44209;52.952;6.790;2024-01-15T12:43:51;2.00;99.90
58413;DHT22;44209;52.952;6.790;2024-01-15T12:46:17;2.00;99.90
58413;DHT22;44209;52.952;6.790;2024-01-15T12:48:44;2.00;99.90
58413;DHT22;44209;52.952;6.790;2024-01-15T12:51:10;2.00;99.90
58413;DHT22;44209;52.952;6.790;2024-01-15T12:53:36;2.10;99.90
58413;DHT22;44209;52.952;6.790;2024-01-15T12:56:02;2.10;99.90
58413;DHT22;44209;52.952;6.790;2024-01-15T12:58:28;2.10;99.90
58413;DHT22;44209;52.952;6.790;2024-01-15T13:00:53;2.10;99.90
58413;DHT22;44209;52.952;6.790;2024-01-15T13:03:19;2.10;99.90
58413;DHT22;44209;52.952;6.790;2024-01-15T13:05:45;2.20;99.90
58413;DHT22;44209;52.952;6.790;2024-01-15T13:08:11;2.20;99.90
58413;DHT22;44209;52.952;6.790;2024-01-15T13:10:36;2.20;99.90
58413;DHT22;44209;52.952;6.790;2024-01-15T13:13:02;2.20;99.90
58413;DHT22;44209;52.952;6.790;2024-01-15T13:15:28;2.30;99.90
58413;DHT22;44209;52.952;6.790;2024-01-15T13:17:54;2.30;99.90
58413;DHT22;44209;52.952;6.790;2024-01-15T13:20:19;2.40;99.90
58413;DHT22;44209;52.952;6.790;2024-01-15T13:22:45;2.40;99.90
58413;DHT22;44209;52.952;6.790;2024-01-15T13:25:11;2.40;99.90
58413;DHT22;44209;52.952;6.790;2024-01-15T13:27:37;2.40;99.90
58413;DHT22;44209;52.952;6.790;2024-01-15T13:30:04;2.40;99.90
58413;DHT22;44209;52.952;6.790;2024-01-15T13:32:32;2.40;99.90
58413;DHT22;44209;52.952;6.790;2024-01-15T13:34:57;2.40;99.90
58413;DHT22;44209;52.952;6.790;2024-01-15T13:37:23;2.40;99.90
58413;DHT22;44209;52.952;6.790;2024-01-15T13:39:52;2.60;99.90
58413;DHT22;44209;52.952;6.790;2024-01-15T13:42:18;2.70;99.90
58413;DHT22;44209;52.952;6.790;2024-01-15T13:44:47;2.70;99.90
58413;DHT22;44209;52.952;6.790;2024-01-15T13:47:13;2.70;99.90
58413;DHT22;44209;52.952;6.790;2024-01-15T13:49:39;2.70;99.90
58413;DHT22;44209;52.952;6.790;2024-01-15T13:52:04;2.70;99.90
58413;DHT22;44209;52.952;6.790;2024-01-15T13:54:30;2.70;99.90
58413;DHT22;44209;52.952;6.790;2024-01-15T13:56:56;2.70;99.90
58413;DHT22;44209;52.952;6.790;2024-01-15T13:59:22;2.60;99.90
58413;DHT22;44209;52.952;6.790;2024-01-15T14:01:48;2.50;99.90
58413;DHT22;44209;52.952;6.790;2024-01-15T14:04:14;2.40;99.90
58413;DHT22;44209;52.952;6.790;2024-01-15T14:06:39;2.40;99.90
58413;DHT22;44209;52.952;6.790;2024-01-15T14:09:05;2.40;99.90
58413;DHT22;44209;52.952;6.790;2024-01-15T14:11:36;2.40;99.90
58413;DHT22;44209;52.952;6.790;2024-01-15T14:14:02;2.40;99.90
58413;DHT22;44209;52.952;6.790;2024-01-15T14:16:28;2.40;99.90
58413;DHT22;44209;52.952;6.790;2024-01-15T14:18:53;2.40;99.90
58413;DHT22;44209;52.952;6.790;2024-01-15T14:21:19;2.50;99.90
58413;DHT22;44209;52.952;6.790;2024-01-15T14:23:45;2.60;99.90
58413;DHT22;44209;52.952;6.790;2024-01-15T14:26:10;2.60;99.90
58413;DHT22;44209;52.952;6.790;2024-01-15T14:28:36;2.60;99.90
58413;DHT22;44209;52.952;6.790;2024-01-15T14:31:02;2.60;99.90
58413;DHT22;44209;52.952;6.790;2024-01-15T14:33:28;2.50;99.90
58413;DHT22;44209;52.952;6.790;2024-01-15T14:35:54;2.50;99.90
58413;DHT22;44209;52.952;6.790;2024-01-15T14:38:19;2.40;99.90
58413;DHT22;44209;52.952;6.790;2024-01-15T14:40:45;2.30;99.90
58413;DHT22;44209;52.952;6.790;2024-01-15T14:43:11;2.20;99.90
58413;DHT22;44209;52.952;6.790;2024-01-15T14:45:36;2.20;99.90
58413;DHT22;44209;52.952;6.790;2024-01-15T14:48:02;2.20;99.90
58413;DHT22;44209;52.952;6.790;2024-01-15T14:50:28;2.20;99.90
58413;DHT22;44209;52.952;6.790;2024-01-15T14:52:54;2.30;99.90
58413;DHT22;44209;52.952;6.790;2024-01-15T14:55:20;2.30;99.90
58413;DHT22;44209;52.952;6.790;2024-01-15T14:57:47;2.40;99.90
58413;DHT22;44209;52.952;6.790;2024-01-15T15:00:14;2.40;99.90
58413;DHT22;44209;52.952;6.790;2024-01-15T15:02:42;2.40;99.90
58413;DHT22;44209;52.952;6.790;2024-01-15T15:05:09;2.40;99.90
58413;DHT22;44209;52.952;6.790;2024-01-15T15:07:35;2.40;99.90
58413;DHT22;44209;52.952;6.790;2024-01-15T15:10:04;2.50;99.90
58413;DHT22;44209;52.952;6.790;2024-01-15T15:12:31;2.40;99.90
58413;DHT22;44209;52.952;6.790;2024-01-15T15:14:56;2.40;99.90
58413;DHT22;44209;52.952;6.790;2024-01-15T15:17:22;2.30;99.90
58413;DHT22;44209;52.952;6.790;2024-01-15T15:19:48;2.30;99.90
58413;DHT22;44209;52.952;6.790;2024-01-15T15:22:14;2.30;99.90
58413;DHT22;44209;52.952;6.790;2024-01-15T15:24:40;2.30;99.90
58413;DHT22;44209;52.952;6.790;2024-01-15T15:27:06;2.20;99.90
58413;DHT22;44209;52.952;6.790;2024-01-15T15:29:33;2.30;99.90
58413;DHT22;44209;52.952;6.790;2024-01-15T15:32:00;2.20;99.90
58413;DHT22;44209;52.952;6.790;2024-01-15T15:34:26;2.20;99.90
58413;DHT22;44209;52.952;6.790;2024-01-15T15:36:52;2.00;99.90
58413;DHT22;44209;52.952;6.790;2024-01-15T15:39:17;1.90;99.90
58413;DHT22;44209;52.952;6.790;2024-01-15T15:41:43;1.80;99.90
58413;DHT22;44209;52.952;6.790;2024-01-15T15:44:09;1.80;99.90
58413;DHT22;44209;52.952;6.790;2024-01-15T15:46:40;1.70;99.90
58413;DHT22;44209;52.952;6.790;2024-01-15T15:49:06;1.70;99.90
58413;DHT22;44209;52.952;6.790;2024-01-15T15:51:33;1.60;99.90